Tina-c — 2APY2 — position and weather

sailwx.info

Track history (hours):
 
Tides and Currents Weather Stations Pressure Air Temp Water Temp Dewpoint Dewpoint Depression Visibility Wind Speed Wind Dir Waves Ship Positions

Tina-c

Last reported at 2016-Aug-25 21:33 UTC. Time now 2016-Aug-25 21:57 UTC.
Position N 49°60' W 004°34'.

Length 99 m; draft 6.3 m.

Type: Cargo ship. MMSI: 235061987.

Date/timePositionNaut miles runAvg speedWind from/ knotsBaromVisibWave heightAir tempDewpointWater temp
2016-Aug-25 21:33N 49°60' W 004°34'1010.2
2016-Aug-25 20:34N 50°07' W 004°24'1110.6
2016-Aug-25 19:33N 50°16' W 004°13'6 0.2
2016-Aug-24 15:34N 50°21' W 004°09'0 0.0
2016-Aug-24 14:31N 50°21' W 004°09'0 0.0
2016-Aug-24 13:22N 50°21' W 004°09'0 0.0
2016-Aug-24 12:31N 50°21' W 004°09'0 0.0
2016-Aug-24 11:25N 50°21' W 004°09'0 0.0
2016-Aug-24 10:31N 50°21' W 004°09'0 0.0
2016-Aug-24 09:31N 50°21' W 004°09'0 0.0
2016-Aug-24 08:31N 50°21' W 004°09'0 0.0
2016-Aug-24 07:31N 50°21' W 004°09'0 0.1
2016-Aug-24 06:33N 50°21' W 004°09'15 7.7
2016-Aug-24 04:33N 50°08' W 003°54'1010.2
2016-Aug-24 03:34N 50°08' W 003°38'1010.3
2016-Aug-24 02:33N 50°09' W 003°22'1010.4
2016-Aug-24 01:33N 50°09' W 003°06'10 9.9
2016-Aug-24 00:33N 50°10' W 002°51'9 9.0
2016-Aug-23 23:33N 50°10' W 002°37'9 8.5
2016-Aug-23 22:33N 50°10' W 002°23'5111.4
2016-Aug-23 18:03N 49°51' W 001°09'714.8
2016-Aug-23 17:34N 49°47' W 000°59'1414.1
2016-Aug-23 16:33N 49°41' W 000°40'1312.9
2016-Aug-23 15:33N 49°35' W 000°22'1211.7
2016-Aug-23 14:33N 49°29' W 000°06'1110.7
2016-Aug-23 13:33N 49°26' E 000°09'3 3.3
2016-Aug-23 12:32N 49°26' E 000°15'0 0.0
2016-Aug-23 11:32N 49°26' E 000°15'0 0.0
2016-Aug-23 10:32N 49°26' E 000°15'0 0.0
2016-Aug-23 09:32N 49°26' E 000°15'0 0.0
2016-Aug-23 08:32N 49°26' E 000°15'0 0.0
2016-Aug-23 07:32N 49°26' E 000°15'0 0.0
2016-Aug-23 06:32N 49°26' E 000°15'0 0.0
2016-Aug-23 05:32N 49°26' E 000°15'0 0.0
2016-Aug-23 04:32N 49°26' E 000°15'0 0.0
2016-Aug-23 03:32N 49°26' E 000°15'0 0.0
2016-Aug-23 02:32N 49°26' E 000°15'0 0.0
2016-Aug-23 01:32N 49°26' E 000°15'0 0.0
2016-Aug-23 00:32N 49°26' E 000°15'0 0.0
2016-Aug-22 23:32N 49°26' E 000°15'0 0.0
2016-Aug-22 22:32N 49°26' E 000°15'0 0.0
2016-Aug-22 21:32N 49°26' E 000°15'0 0.0
2016-Aug-22 20:32N 49°26' E 000°15'0 0.0
2016-Aug-22 19:32N 49°26' E 000°15'0 0.0
2016-Aug-22 18:32N 49°26' E 000°15'0 0.0
2016-Aug-22 17:32N 49°26' E 000°15'0 0.0
2016-Aug-22 16:32N 49°26' E 000°15'0 0.0
2016-Aug-22 15:32N 49°26' E 000°15'0 0.0
2016-Aug-22 14:32N 49°26' E 000°15'0 0.0
2016-Aug-22 13:32N 49°26' E 000°15'0 0.0
2016-Aug-22 12:32N 49°26' E 000°15'0 0.0
2016-Aug-22 11:32N 49°26' E 000°15'0 0.0
2016-Aug-22 10:32N 49°26' E 000°15'0 0.0
2016-Aug-22 09:32N 49°26' E 000°15'0 0.0
2016-Aug-22 08:32N 49°26' E 000°15'0 0.0
2016-Aug-22 07:32N 49°26' E 000°15'0 0.0
2016-Aug-22 06:32N 49°26' E 000°15'0 0.0
2016-Aug-22 05:32N 49°26' E 000°15'0 0.0
2016-Aug-22 04:32N 49°26' E 000°15'0 0.0
2016-Aug-22 03:32N 49°26' E 000°15'0 0.0
2016-Aug-22 02:32N 49°26' E 000°15'0 0.0
2016-Aug-22 01:32N 49°26' E 000°15'0 0.0
2016-Aug-22 00:32N 49°26' E 000°15'0 0.0
2016-Aug-21 23:32N 49°26' E 000°15'0 0.0
2016-Aug-21 22:29N 49°26' E 000°15'0 0.0
2016-Aug-21 21:32N 49°26' E 000°15'0 0.0
2016-Aug-21 20:32N 49°26' E 000°15'0 0.0
2016-Aug-21 19:32N 49°26' E 000°15'0 0.0
2016-Aug-21 18:32N 49°26' E 000°15'0 0.0
2016-Aug-21 17:32N 49°26' E 000°15'0 0.0
2016-Aug-21 16:32N 49°26' E 000°15'0 0.0
2016-Aug-21 15:32N 49°26' E 000°15'0 0.0
2016-Aug-21 14:32N 49°26' E 000°15'0 0.0
2016-Aug-21 13:32N 49°26' E 000°15'0 0.0
2016-Aug-21 12:32N 49°26' E 000°15'0 0.0
2016-Aug-21 11:32N 49°26' E 000°15'0 0.0
2016-Aug-21 10:32N 49°26' E 000°15'0 0.0
2016-Aug-21 09:32N 49°26' E 000°15'0 0.0
2016-Aug-21 08:32N 49°26' E 000°15'0 0.0
2016-Aug-21 07:32N 49°26' E 000°15'0 0.0
2016-Aug-21 06:32N 49°26' E 000°15'0 0.0
2016-Aug-21 05:32N 49°26' E 000°15'0 0.0
2016-Aug-21 04:32N 49°26' E 000°15'0 0.0
2016-Aug-21 03:32N 49°26' E 000°15'0 0.0
2016-Aug-21 02:32N 49°26' E 000°15'0 0.0
2016-Aug-21 01:32N 49°26' E 000°15'0 0.0
2016-Aug-21 00:32N 49°26' E 000°15'0 0.0
2016-Aug-20 23:32N 49°26' E 000°15'0 0.0
2016-Aug-20 22:32N 49°26' E 000°15'0 0.0
2016-Aug-20 21:32N 49°26' E 000°15'0 0.0
2016-Aug-20 20:32N 49°26' E 000°15'0 0.0
2016-Aug-20 19:32N 49°26' E 000°15'0 0.0
2016-Aug-20 18:29N 49°26' E 000°15'0 0.0
2016-Aug-20 17:32N 49°26' E 000°15'0 0.0
2016-Aug-20 16:32N 49°26' E 000°15'0 0.0
2016-Aug-20 15:32N 49°26' E 000°15'0 0.0
2016-Aug-20 14:32N 49°26' E 000°15'0 0.0
2016-Aug-20 13:32N 49°26' E 000°15'0 0.0
2016-Aug-20 12:32N 49°26' E 000°15'0 0.0
2016-Aug-20 11:32N 49°26' E 000°15'0 0.0
2016-Aug-20 10:32N 49°26' E 000°15'0 0.0
2016-Aug-20 09:32N 49°26' E 000°15'0 0.0
2016-Aug-20 08:32N 49°26' E 000°15'0 0.0
2016-Aug-20 07:32N 49°26' E 000°15'0 0.0
2016-Aug-20 06:32N 49°26' E 000°15'0 0.0
2016-Aug-20 05:32N 49°26' E 000°15'0 0.0
2016-Aug-20 04:32N 49°26' E 000°15'0 0.0
2016-Aug-20 03:32N 49°26' E 000°15'0 0.0
2016-Aug-20 02:32N 49°26' E 000°15'0 0.0
2016-Aug-20 01:33N 49°26' E 000°15'4 4.3
2016-Aug-20 00:34N 49°26' E 000°08'9 8.9
2016-Aug-19 23:33N 49°29' W 000°05'1 0.8
2016-Aug-19 22:32N 49°28' W 000°05'0 0.0
2016-Aug-19 21:32N 49°28' W 000°05'0 0.0
2016-Aug-19 20:32N 49°28' W 000°05'0 0.1
2016-Aug-19 19:32N 49°28' W 000°05'0 0.1
2016-Aug-19 18:32N 49°28' W 000°06'0 0.0
2016-Aug-19 17:32N 49°28' W 000°06'0 0.0
2016-Aug-19 16:32N 49°28' W 000°06'0 0.0
2016-Aug-19 15:33N 49°28' W 000°06'4 3.6
2016-Aug-19 14:33N 49°30' W 000°10'9 8.8
2016-Aug-19 13:33N 49°34' W 000°22'9 8.9
2016-Aug-19 12:33N 49°39' W 000°34'178 9.6
2016-Aug-18 18:05N 48°60' W 005°01'811.1
2016-Aug-18 17:24N 48°56' W 005°11'1011.5
2016-Aug-18 16:33N 48°51' W 005°24'57 8.1
2016-Aug-18 09:33N 47°56' W 005°07'8 7.9
2016-Aug-18 08:33N 47°50' W 004°58'8 7.5
2016-Aug-18 07:33N 47°46' W 004°49'32 7.8
2016-Aug-18 03:26N 47°25' W 004°13'10 8.2
2016-Aug-18 02:10N 47°19' W 004°01'5 8.3
2016-Aug-18 01:32N 47°16' W 003°55'10 8.5
2016-Aug-18 00:20N 47°09' W 003°43'9 9.0
2016-Aug-17 23:21N 47°04' W 003°33'7 9.2
2016-Aug-17 22:33N 46°59' W 003°24'10 9.2
2016-Aug-17 21:30N 46°53' W 003°14'51 9.7
2016-Aug-17 16:16N 46°21' W 002°17'7 9.1
2016-Aug-17 15:32N 46°16' W 002°10'  
Track history (hours):
 
Tides and Currents Weather Stations Pressure Air Temp Water Temp Dewpoint Dewpoint Depression Visibility Wind Speed Wind Dir Waves Ship Positions

Tina-c

Last reported at 2016-Aug-25 21:33 UTC. Time now 2016-Aug-25 21:57 UTC.
Position N 49°60' W 004°34'.

Length 99 m; draft 6.3 m.

Type: Cargo ship. MMSI: 235061987.

Date/timePositionNaut miles runAvg speedWind from/ knotsBaromVisibWave heightAir tempDewpointWater temp
2016-Aug-25 21:33N 49°60' W 004°34'1010.2
2016-Aug-25 20:34N 50°07' W 004°24'1110.6
2016-Aug-25 19:33N 50°16' W 004°13'6 0.2
2016-Aug-24 15:34N 50°21' W 004°09'0 0.0
2016-Aug-24 14:31N 50°21' W 004°09'0 0.0
2016-Aug-24 13:22N 50°21' W 004°09'0 0.0
2016-Aug-24 12:31N 50°21' W 004°09'0 0.0
2016-Aug-24 11:25N 50°21' W 004°09'0 0.0
2016-Aug-24 10:31N 50°21' W 004°09'0 0.0
2016-Aug-24 09:31N 50°21' W 004°09'0 0.0
2016-Aug-24 08:31N 50°21' W 004°09'0 0.0
2016-Aug-24 07:31N 50°21' W 004°09'0 0.1
2016-Aug-24 06:33N 50°21' W 004°09'15 7.7
2016-Aug-24 04:33N 50°08' W 003°54'1010.2
2016-Aug-24 03:34N 50°08' W 003°38'1010.3
2016-Aug-24 02:33N 50°09' W 003°22'1010.4
2016-Aug-24 01:33N 50°09' W 003°06'10 9.9
2016-Aug-24 00:33N 50°10' W 002°51'9 9.0
2016-Aug-23 23:33N 50°10' W 002°37'9 8.5
2016-Aug-23 22:33N 50°10' W 002°23'5111.4
2016-Aug-23 18:03N 49°51' W 001°09'714.8
2016-Aug-23 17:34N 49°47' W 000°59'1414.1
2016-Aug-23 16:33N 49°41' W 000°40'1312.9
2016-Aug-23 15:33N 49°35' W 000°22'1211.7
2016-Aug-23 14:33N 49°29' W 000°06'1110.7
2016-Aug-23 13:33N 49°26' E 000°09'3 3.3
2016-Aug-23 12:32N 49°26' E 000°15'0 0.0
2016-Aug-23 11:32N 49°26' E 000°15'0 0.0
2016-Aug-23 10:32N 49°26' E 000°15'0 0.0
2016-Aug-23 09:32N 49°26' E 000°15'0 0.0
2016-Aug-23 08:32N 49°26' E 000°15'0 0.0
2016-Aug-23 07:32N 49°26' E 000°15'0 0.0
2016-Aug-23 06:32N 49°26' E 000°15'0 0.0
2016-Aug-23 05:32N 49°26' E 000°15'0 0.0
2016-Aug-23 04:32N 49°26' E 000°15'0 0.0
2016-Aug-23 03:32N 49°26' E 000°15'0 0.0
2016-Aug-23 02:32N 49°26' E 000°15'0 0.0
2016-Aug-23 01:32N 49°26' E 000°15'0 0.0
2016-Aug-23 00:32N 49°26' E 000°15'0 0.0
2016-Aug-22 23:32N 49°26' E 000°15'0 0.0
2016-Aug-22 22:32N 49°26' E 000°15'0 0.0
2016-Aug-22 21:32N 49°26' E 000°15'0 0.0
2016-Aug-22 20:32N 49°26' E 000°15'0 0.0
2016-Aug-22 19:32N 49°26' E 000°15'0 0.0
2016-Aug-22 18:32N 49°26' E 000°15'0 0.0
2016-Aug-22 17:32N 49°26' E 000°15'0 0.0
2016-Aug-22 16:32N 49°26' E 000°15'0 0.0
2016-Aug-22 15:32N 49°26' E 000°15'0 0.0
2016-Aug-22 14:32N 49°26' E 000°15'0 0.0
2016-Aug-22 13:32N 49°26' E 000°15'0 0.0
2016-Aug-22 12:32N 49°26' E 000°15'0 0.0
2016-Aug-22 11:32N 49°26' E 000°15'0 0.0
2016-Aug-22 10:32N 49°26' E 000°15'0 0.0
2016-Aug-22 09:32N 49°26' E 000°15'0 0.0
2016-Aug-22 08:32N 49°26' E 000°15'0 0.0
2016-Aug-22 07:32N 49°26' E 000°15'0 0.0
2016-Aug-22 06:32N 49°26' E 000°15'0 0.0
2016-Aug-22 05:32N 49°26' E 000°15'0 0.0
2016-Aug-22 04:32N 49°26' E 000°15'0 0.0
2016-Aug-22 03:32N 49°26' E 000°15'0 0.0
2016-Aug-22 02:32N 49°26' E 000°15'0 0.0
2016-Aug-22 01:32N 49°26' E 000°15'0 0.0
2016-Aug-22 00:32N 49°26' E 000°15'0 0.0
2016-Aug-21 23:32N 49°26' E 000°15'0 0.0
2016-Aug-21 22:29N 49°26' E 000°15'0 0.0
2016-Aug-21 21:32N 49°26' E 000°15'0 0.0
2016-Aug-21 20:32N 49°26' E 000°15'0 0.0
2016-Aug-21 19:32N 49°26' E 000°15'0 0.0
2016-Aug-21 18:32N 49°26' E 000°15'0 0.0
2016-Aug-21 17:32N 49°26' E 000°15'0 0.0
2016-Aug-21 16:32N 49°26' E 000°15'0 0.0
2016-Aug-21 15:32N 49°26' E 000°15'0 0.0
2016-Aug-21 14:32N 49°26' E 000°15'0 0.0
2016-Aug-21 13:32N 49°26' E 000°15'0 0.0
2016-Aug-21 12:32N 49°26' E 000°15'0 0.0
2016-Aug-21 11:32N 49°26' E 000°15'0 0.0
2016-Aug-21 10:32N 49°26' E 000°15'0 0.0
2016-Aug-21 09:32N 49°26' E 000°15'0 0.0
2016-Aug-21 08:32N 49°26' E 000°15'0 0.0
2016-Aug-21 07:32N 49°26' E 000°15'0 0.0
2016-Aug-21 06:32N 49°26' E 000°15'0 0.0
2016-Aug-21 05:32N 49°26' E 000°15'0 0.0
2016-Aug-21 04:32N 49°26' E 000°15'0 0.0
2016-Aug-21 03:32N 49°26' E 000°15'0 0.0
2016-Aug-21 02:32N 49°26' E 000°15'0 0.0
2016-Aug-21 01:32N 49°26' E 000°15'0 0.0
2016-Aug-21 00:32N 49°26' E 000°15'0 0.0
2016-Aug-20 23:32N 49°26' E 000°15'0 0.0
2016-Aug-20 22:32N 49°26' E 000°15'0 0.0
2016-Aug-20 21:32N 49°26' E 000°15'0 0.0
2016-Aug-20 20:32N 49°26' E 000°15'0 0.0
2016-Aug-20 19:32N 49°26' E 000°15'0 0.0
2016-Aug-20 18:29N 49°26' E 000°15'0 0.0
2016-Aug-20 17:32N 49°26' E 000°15'0 0.0
2016-Aug-20 16:32N 49°26' E 000°15'0 0.0
2016-Aug-20 15:32N 49°26' E 000°15'0 0.0
2016-Aug-20 14:32N 49°26' E 000°15'0 0.0
2016-Aug-20 13:32N 49°26' E 000°15'0 0.0
2016-Aug-20 12:32N 49°26' E 000°15'0 0.0
2016-Aug-20 11:32N 49°26' E 000°15'0 0.0
2016-Aug-20 10:32N 49°26' E 000°15'0 0.0
2016-Aug-20 09:32N 49°26' E 000°15'0 0.0
2016-Aug-20 08:32N 49°26' E 000°15'0 0.0
2016-Aug-20 07:32N 49°26' E 000°15'0 0.0
2016-Aug-20 06:32N 49°26' E 000°15'0 0.0
2016-Aug-20 05:32N 49°26' E 000°15'0 0.0
2016-Aug-20 04:32N 49°26' E 000°15'0 0.0
2016-Aug-20 03:32N 49°26' E 000°15'0 0.0
2016-Aug-20 02:32N 49°26' E 000°15'0 0.0
2016-Aug-20 01:33N 49°26' E 000°15'4 4.3
2016-Aug-20 00:34N 49°26' E 000°08'9 8.9
2016-Aug-19 23:33N 49°29' W 000°05'1 0.8
2016-Aug-19 22:32N 49°28' W 000°05'0 0.0
2016-Aug-19 21:32N 49°28' W 000°05'0 0.0
2016-Aug-19 20:32N 49°28' W 000°05'0 0.1
2016-Aug-19 19:32N 49°28' W 000°05'0 0.1
2016-Aug-19 18:32N 49°28' W 000°06'0 0.0
2016-Aug-19 17:32N 49°28' W 000°06'0 0.0
2016-Aug-19 16:32N 49°28' W 000°06'0 0.0
2016-Aug-19 15:33N 49°28' W 000°06'4 3.6
2016-Aug-19 14:33N 49°30' W 000°10'9 8.8
2016-Aug-19 13:33N 49°34' W 000°22'9 8.9
2016-Aug-19 12:33N 49°39' W 000°34'178 9.6
2016-Aug-18 18:05N 48°60' W 005°01'811.1
2016-Aug-18 17:24N 48°56' W 005°11'1011.5
2016-Aug-18 16:33N 48°51' W 005°24'57 8.1
2016-Aug-18 09:33N 47°56' W 005°07'8 7.9
2016-Aug-18 08:33N 47°50' W 004°58'8 7.5
2016-Aug-18 07:33N 47°46' W 004°49'32 7.8
2016-Aug-18 03:26N 47°25' W 004°13'10 8.2
2016-Aug-18 02:10N 47°19' W 004°01'5 8.3
2016-Aug-18 01:32N 47°16' W 003°55'10 8.5
2016-Aug-18 00:20N 47°09' W 003°43'9 9.0
2016-Aug-17 23:21N 47°04' W 003°33'7 9.2
2016-Aug-17 22:33N 46°59' W 003°24'10 9.2
2016-Aug-17 21:30N 46°53' W 003°14'51 9.7
2016-Aug-17 16:16N 46°21' W 002°17'7 9.1
2016-Aug-17 15:32N 46°16' W 002°10'  

Dump ship's entire track history